sensor_id;sensor_type;location;lat;lon;timestamp;P1;durP1;ratioP1;P2;durP2;ratioP2
39322;SDS011;25036;53.638;10.134;2022-08-01T00:00:37;8.73;;;7.03;;
39322;SDS011;25036;53.638;10.134;2022-08-01T00:01:37;7.03;;;6.32;;
39322;SDS011;25036;53.638;10.134;2022-08-01T00:02:38;8.18;;;7.30;;
39322;SDS011;25036;53.638;10.134;2022-08-01T00:03:38;6.72;;;6.13;;
39322;SDS011;25036;53.638;10.134;2022-08-01T00:04:38;6.93;;;6.33;;
39322;SDS011;25036;53.638;10.134;2022-08-01T00:05:38;6.13;;;5.53;;
39322;SDS011;25036;53.638;10.134;2022-08-01T00:06:38;6.55;;;5.93;;
39322;SDS011;25036;53.638;10.134;2022-08-01T00:07:38;6.57;;;5.83;;
39322;SDS011;25036;53.638;10.134;2022-08-01T00:08:39;6.80;;;6.13;;
39322;SDS011;25036;53.638;10.134;2022-08-01T00:09:39;6.90;;;6.20;;
39322;SDS011;25036;53.638;10.134;2022-08-01T00:10:39;6.57;;;5.97;;
39322;SDS011;25036;53.638;10.134;2022-08-01T00:11:39;6.15;;;5.50;;
39322;SDS011;25036;53.638;10.134;2022-08-01T00:12:40;7.03;;;6.03;;
39322;SDS011;25036;53.638;10.134;2022-08-01T00:13:40;9.27;;;6.28;;
39322;SDS011;25036;53.638;10.134;2022-08-01T00:14:40;6.83;;;6.03;;
39322;SDS011;25036;53.638;10.134;2022-08-01T00:15:40;7.27;;;6.10;;
39322;SDS011;25036;53.638;10.134;2022-08-01T00:16:41;6.60;;;5.85;;
39322;SDS011;25036;53.638;10.134;2022-08-01T00:17:41;7.10;;;6.40;;
39322;SDS011;25036;53.638;10.134;2022-08-01T00:18:41;6.13;;;5.63;;
39322;SDS011;25036;53.638;10.134;2022-08-01T00:19:42;7.00;;;6.27;;
39322;SDS011;25036;53.638;10.134;2022-08-01T00:20:42;6.70;;;6.00;;
39322;SDS011;25036;53.638;10.134;2022-08-01T00:21:42;7.00;;;5.90;;
39322;SDS011;25036;53.638;10.134;2022-08-01T00:22:42;6.50;;;5.90;;
39322;SDS011;25036;53.638;10.134;2022-08-01T00:23:42;6.20;;;5.60;;
39322;SDS011;25036;53.638;10.134;2022-08-01T00:24:43;6.80;;;5.93;;
39322;SDS011;25036;53.638;10.134;2022-08-01T00:25:43;6.32;;;5.72;;
39322;SDS011;25036;53.638;10.134;2022-08-01T00:26:43;6.50;;;6.00;;
39322;SDS011;25036;53.638;10.134;2022-08-01T00:27:43;7.50;;;5.70;;
39322;SDS011;25036;53.638;10.134;2022-08-01T00:28:44;6.43;;;5.83;;
39322;SDS011;25036;53.638;10.134;2022-08-01T00:29:44;6.60;;;5.38;;
39322;SDS011;25036;53.638;10.134;2022-08-01T00:30:44;8.27;;;5.63;;
39322;SDS011;25036;53.638;10.134;2022-08-01T00:31:44;5.97;;;5.40;;
39322;SDS011;25036;53.638;10.134;2022-08-01T00:32:44;6.60;;;6.00;;
39322;SDS011;25036;53.638;10.134;2022-08-01T00:33:45;6.30;;;5.63;;
39322;SDS011;25036;53.638;10.134;2022-08-01T00:34:45;6.20;;;5.57;;
39322;SDS011;25036;53.638;10.134;2022-08-01T00:35:45;6.32;;;5.72;;
39322;SDS011;25036;53.638;10.134;2022-08-01T00:36:45;6.60;;;5.90;;
39322;SDS011;25036;53.638;10.134;2022-08-01T00:37:46;6.40;;;5.75;;
39322;SDS011;25036;53.638;10.134;2022-08-01T00:38:46;8.03;;;6.13;;
39322;SDS011;25036;53.638;10.134;2022-08-01T00:39:46;6.17;;;5.57;;
39322;SDS011;25036;53.638;10.134;2022-08-01T00:40:47;6.20;;;5.60;;
39322;SDS011;25036;53.638;10.134;2022-08-01T00:41:47;6.40;;;5.80;;
39322;SDS011;25036;53.638;10.134;2022-08-01T00:42:47;6.30;;;5.75;;
39322;SDS011;25036;53.638;10.134;2022-08-01T00:43:47;7.00;;;6.20;;
39322;SDS011;25036;53.638;10.134;2022-08-01T00:44:48;6.68;;;5.80;;
39322;SDS011;25036;53.638;10.134;2022-08-01T00:45:48;6.95;;;6.22;;
39322;SDS011;25036;53.638;10.134;2022-08-01T00:46:48;6.35;;;5.75;;
39322;SDS011;25036;53.638;10.134;2022-08-01T00:47:48;5.73;;;5.33;;
39322;SDS011;25036;53.638;10.134;2022-08-01T00:48:48;6.60;;;6.00;;
39322;SDS011;25036;53.638;10.134;2022-08-01T00:49:48;6.80;;;6.00;;
39322;SDS011;25036;53.638;10.134;2022-08-01T00:50:48;7.00;;;6.37;;
39322;SDS011;25036;53.638;10.134;2022-08-01T00:51:49;7.20;;;6.50;;
39322;SDS011;25036;53.638;10.134;2022-08-01T00:52:49;8.80;;;6.22;;
39322;SDS011;25036;53.638;10.134;2022-08-01T00:53:50;7.32;;;6.53;;
39322;SDS011;25036;53.638;10.134;2022-08-01T00:54:51;7.55;;;6.00;;
39322;SDS011;25036;53.638;10.134;2022-08-01T00:55:51;7.30;;;6.23;;
39322;SDS011;25036;53.638;10.134;2022-08-01T00:56:51;6.72;;;6.13;;
39322;SDS011;25036;53.638;10.134;2022-08-01T00:57:52;8.25;;;6.53;;
39322;SDS011;25036;53.638;10.134;2022-08-01T00:58:52;6.63;;;5.90;;
39322;SDS011;25036;53.638;10.134;2022-08-01T00:59:53;8.07;;;5.70;;
39322;SDS011;25036;53.638;10.134;2022-08-01T01:00:53;9.43;;;6.63;;
39322;SDS011;25036;53.638;10.134;2022-08-01T01:01:53;8.05;;;7.25;;
39322;SDS011;25036;53.638;10.134;2022-08-01T01:02:54;7.25;;;6.55;;
39322;SDS011;25036;53.638;10.134;2022-08-01T01:03:54;6.50;;;5.82;;
39322;SDS011;25036;53.638;10.134;2022-08-01T01:04:54;8.65;;;6.40;;
39322;SDS011;25036;53.638;10.134;2022-08-01T01:05:56;6.80;;;6.17;;
39322;SDS011;25036;53.638;10.134;2022-08-01T01:07:02;6.72;;;5.80;;
39322;SDS011;25036;53.638;10.134;2022-08-01T01:08:08;6.32;;;5.72;;
39322;SDS011;25036;53.638;10.134;2022-08-01T01:09:26;7.10;;;6.40;;
39322;SDS011;25036;53.638;10.134;2022-08-01T01:11:03;6.78;;;6.07;;
39322;SDS011;25036;53.638;10.134;2022-08-01T01:14:13;6.43;;;5.82;;
39322;SDS011;25036;53.638;10.134;2022-08-01T01:15:24;5.97;;;5.38;;
39322;SDS011;25036;53.638;10.134;2022-08-01T01:16:26;7.18;;;5.85;;
39322;SDS011;25036;53.638;10.134;2022-08-01T01:17:27;6.38;;;5.78;;
39322;SDS011;25036;53.638;10.134;2022-08-01T01:18:35;7.82;;;6.15;;
39322;SDS011;25036;53.638;10.134;2022-08-01T01:19:39;6.35;;;5.53;;
39322;SDS011;25036;53.638;10.134;2022-08-01T01:20:46;6.55;;;5.80;;
39322;SDS011;25036;53.638;10.134;2022-08-01T01:24:24;7.37;;;5.83;;
39322;SDS011;25036;53.638;10.134;2022-08-01T01:26:57;7.95;;;5.85;;
39322;SDS011;25036;53.638;10.134;2022-08-01T01:30:05;7.78;;;5.68;;
39322;SDS011;25036;53.638;10.134;2022-08-01T01:31:06;8.35;;;5.55;;
39322;SDS011;25036;53.638;10.134;2022-08-01T01:32:09;6.75;;;6.15;;
39322;SDS011;25036;53.638;10.134;2022-08-01T01:33:12;6.20;;;5.60;;
39322;SDS011;25036;53.638;10.134;2022-08-01T01:34:13;7.22;;;6.15;;
39322;SDS011;25036;53.638;10.134;2022-08-01T01:35:23;6.53;;;5.90;;
39322;SDS011;25036;53.638;10.134;2022-08-01T01:36:24;7.28;;;5.93;;
39322;SDS011;25036;53.638;10.134;2022-08-01T01:37:25;7.57;;;6.18;;
39322;SDS011;25036;53.638;10.134;2022-08-01T01:38:28;5.85;;;5.35;;
39322;SDS011;25036;53.638;10.134;2022-08-01T01:39:29;6.63;;;5.93;;
39322;SDS011;25036;53.638;10.134;2022-08-01T01:40:29;6.80;;;5.80;;
39322;SDS011;25036;53.638;10.134;2022-08-01T01:41:30;8.55;;;5.75;;
39322;SDS011;25036;53.638;10.134;2022-08-01T01:42:31;7.85;;;6.65;;
39322;SDS011;25036;53.638;10.134;2022-08-01T01:43:31;8.45;;;6.10;;
39322;SDS011;25036;53.638;10.134;2022-08-01T01:44:32;6.88;;;5.50;;
39322;SDS011;25036;53.638;10.134;2022-08-01T01:45:33;9.65;;;6.57;;
39322;SDS011;25036;53.638;10.134;2022-08-01T01:46:34;9.48;;;5.88;;
39322;SDS011;25036;53.638;10.134;2022-08-01T01:47:36;10.32;;;5.88;;
39322;SDS011;25036;53.638;10.134;2022-08-01T01:48:37;6.97;;;5.60;;
39322;SDS011;25036;53.638;10.134;2022-08-01T01:49:38;7.75;;;6.18;;
39322;SDS011;25036;53.638;10.134;2022-08-01T01:50:39;9.30;;;5.43;;
39322;SDS011;25036;53.638;10.134;2022-08-01T01:51:41;6.78;;;5.85;;
39322;SDS011;25036;53.638;10.134;2022-08-01T01:52:42;5.88;;;5.32;;
39322;SDS011;25036;53.638;10.134;2022-08-01T01:53:44;7.53;;;6.18;;
39322;SDS011;25036;53.638;10.134;2022-08-01T01:54:48;6.35;;;5.75;;
39322;SDS011;25036;53.638;10.134;2022-08-01T01:55:52;7.63;;;6.00;;
39322;SDS011;25036;53.638;10.134;2022-08-01T01:56:52;7.28;;;6.03;;
39322;SDS011;25036;53.638;10.134;2022-08-01T01:57:53;7.63;;;6.18;;
39322;SDS011;25036;53.638;10.134;2022-08-01T01:58:55;6.82;;;5.75;;
39322;SDS011;25036;53.638;10.134;2022-08-01T01:59:56;6.28;;;5.68;;
39322;SDS011;25036;53.638;10.134;2022-08-01T02:00:57;6.50;;;5.90;;
39322;SDS011;25036;53.638;10.134;2022-08-01T02:01:59;7.45;;;5.97;;
39322;SDS011;25036;53.638;10.134;2022-08-01T02:03:02;8.65;;;5.45;;
39322;SDS011;25036;53.638;10.134;2022-08-01T02:04:04;7.60;;;5.80;;
39322;SDS011;25036;53.638;10.134;2022-08-01T02:05:08;7.95;;;5.70;;
39322;SDS011;25036;53.638;10.134;2022-08-01T02:06:08;5.55;;;4.72;;
39322;SDS011;25036;53.638;10.134;2022-08-01T02:07:10;9.88;;;5.68;;
39322;SDS011;25036;53.638;10.134;2022-08-01T02:08:13;5.60;;;5.05;;
39322;SDS011;25036;53.638;10.134;2022-08-01T02:09:14;5.90;;;4.85;;
39322;SDS011;25036;53.638;10.134;2022-08-01T02:10:17;6.10;;;4.88;;
39322;SDS011;25036;53.638;10.134;2022-08-01T02:11:19;6.10;;;4.80;;
39322;SDS011;25036;53.638;10.134;2022-08-01T02:12:19;4.80;;;4.40;;
39322;SDS011;25036;53.638;10.134;2022-08-01T02:13:21;5.93;;;5.13;;
39322;SDS011;25036;53.638;10.134;2022-08-01T02:14:22;6.07;;;5.35;;
39322;SDS011;25036;53.638;10.134;2022-08-01T02:15:22;6.88;;;4.25;;
39322;SDS011;25036;53.638;10.134;2022-08-01T02:16:25;4.68;;;4.05;;
39322;SDS011;25036;53.638;10.134;2022-08-01T02:17:25;8.18;;;4.93;;
39322;SDS011;25036;53.638;10.134;2022-08-01T02:18:26;5.75;;;4.40;;
39322;SDS011;25036;53.638;10.134;2022-08-01T02:19:26;6.70;;;4.70;;
39322;SDS011;25036;53.638;10.134;2022-08-01T02:20:28;5.50;;;4.63;;
39322;SDS011;25036;53.638;10.134;2022-08-01T02:21:32;6.88;;;3.28;;
39322;SDS011;25036;53.638;10.134;2022-08-01T02:22:36;4.63;;;3.25;;
39322;SDS011;25036;53.638;10.134;2022-08-01T02:23:37;3.63;;;3.30;;
39322;SDS011;25036;53.638;10.134;2022-08-01T02:24:46;8.30;;;3.90;;
39322;SDS011;25036;53.638;10.134;2022-08-01T02:25:49;4.70;;;3.75;;
39322;SDS011;25036;53.638;10.134;2022-08-01T02:26:50;3.80;;;3.42;;
39322;SDS011;25036;53.638;10.134;2022-08-01T02:27:58;5.78;;;3.35;;
39322;SDS011;25036;53.638;10.134;2022-08-01T02:29:02;6.30;;;3.35;;
39322;SDS011;25036;53.638;10.134;2022-08-01T02:30:06;3.90;;;2.95;;
39322;SDS011;25036;53.638;10.134;2022-08-01T02:31:08;4.72;;;3.92;;
39322;SDS011;25036;53.638;10.134;2022-08-01T02:32:14;4.05;;;3.22;;
39322;SDS011;25036;53.638;10.134;2022-08-01T02:33:18;3.80;;;3.28;;
39322;SDS011;25036;53.638;10.134;2022-08-01T02:34:20;5.50;;;4.25;;
39322;SDS011;25036;53.638;10.134;2022-08-01T02:35:29;4.30;;;3.70;;
39322;SDS011;25036;53.638;10.134;2022-08-01T02:36:30;4.00;;;3.60;;
39322;SDS011;25036;53.638;10.134;2022-08-01T02:37:33;5.55;;;3.88;;
39322;SDS011;25036;53.638;10.134;2022-08-01T02:38:35;4.57;;;3.95;;
39322;SDS011;25036;53.638;10.134;2022-08-01T02:39:36;3.97;;;3.45;;
39322;SDS011;25036;53.638;10.134;2022-08-01T02:40:37;7.25;;;4.28;;
39322;SDS011;25036;53.638;10.134;2022-08-01T02:41:41;5.32;;;3.70;;
39322;SDS011;25036;53.638;10.134;2022-08-01T02:42:43;4.85;;;4.13;;
39322;SDS011;25036;53.638;10.134;2022-08-01T02:43:47;6.35;;;3.72;;
39322;SDS011;25036;53.638;10.134;2022-08-01T02:44:48;3.28;;;2.97;;
39322;SDS011;25036;53.638;10.134;2022-08-01T02:45:56;4.30;;;3.65;;
39322;SDS011;25036;53.638;10.134;2022-08-01T02:46:59;4.80;;;4.22;;
39322;SDS011;25036;53.638;10.134;2022-08-01T02:48:06;5.18;;;3.83;;
39322;SDS011;25036;53.638;10.134;2022-08-01T02:49:08;6.05;;;4.35;;
39322;SDS011;25036;53.638;10.134;2022-08-01T02:50:10;4.93;;;4.20;;
39322;SDS011;25036;53.638;10.134;2022-08-01T02:51:11;4.80;;;3.80;;
39322;SDS011;25036;53.638;10.134;2022-08-01T02:52:13;6.95;;;3.85;;
39322;SDS011;25036;53.638;10.134;2022-08-01T02:53:14;5.22;;;3.97;;
39322;SDS011;25036;53.638;10.134;2022-08-01T02:54:16;4.15;;;3.30;;
39322;SDS011;25036;53.638;10.134;2022-08-01T02:55:17;5.60;;;3.67;;
39322;SDS011;25036;53.638;10.134;2022-08-01T02:56:18;7.00;;;4.40;;
39322;SDS011;25036;53.638;10.134;2022-08-01T02:57:18;4.90;;;4.00;;
39322;SDS011;25036;53.638;10.134;2022-08-01T02:58:20;8.45;;;4.13;;
39322;SDS011;25036;53.638;10.134;2022-08-01T02:59:23;4.45;;;3.95;;
39322;SDS011;25036;53.638;10.134;2022-08-01T03:00:25;5.15;;;3.83;;
39322;SDS011;25036;53.638;10.134;2022-08-01T03:01:26;5.25;;;4.15;;
39322;SDS011;25036;53.638;10.134;2022-08-01T03:02:26;5.00;;;3.67;;
39322;SDS011;25036;53.638;10.134;2022-08-01T03:03:27;4.05;;;3.65;;
39322;SDS011;25036;53.638;10.134;2022-08-01T03:04:28;4.45;;;3.42;;
39322;SDS011;25036;53.638;10.134;2022-08-01T03:05:28;4.45;;;3.70;;
39322;SDS011;25036;53.638;10.134;2022-08-01T03:06:29;5.78;;;3.40;;
39322;SDS011;25036;53.638;10.134;2022-08-01T03:07:29;5.00;;;4.18;;
39322;SDS011;25036;53.638;10.134;2022-08-01T03:08:30;5.43;;;3.90;;
39322;SDS011;25036;53.638;10.134;2022-08-01T03:09:32;5.85;;;3.60;;
39322;SDS011;25036;53.638;10.134;2022-08-01T03:10:34;3.80;;;3.50;;
39322;SDS011;25036;53.638;10.134;2022-08-01T03:11:36;5.65;;;3.65;;
39322;SDS011;25036;53.638;10.134;2022-08-01T03:12:39;3.90;;;3.53;;
39322;SDS011;25036;53.638;10.134;2022-08-01T03:13:40;6.00;;;3.90;;
39322;SDS011;25036;53.638;10.134;2022-08-01T03:14:42;4.53;;;4.05;;
39322;SDS011;25036;53.638;10.134;2022-08-01T03:15:43;4.80;;;3.70;;
39322;SDS011;25036;53.638;10.134;2022-08-01T03:16:44;4.65;;;4.07;;
39322;SDS011;25036;53.638;10.134;2022-08-01T03:17:45;4.28;;;3.65;;
39322;SDS011;25036;53.638;10.134;2022-08-01T03:18:46;6.65;;;4.63;;
39322;SDS011;25036;53.638;10.134;2022-08-01T03:19:47;6.07;;;3.95;;
39322;SDS011;25036;53.638;10.134;2022-08-01T03:20:48;5.68;;;4.00;;
39322;SDS011;25036;53.638;10.134;2022-08-01T03:21:48;4.88;;;3.80;;
39322;SDS011;25036;53.638;10.134;2022-08-01T03:22:49;4.72;;;3.97;;
39322;SDS011;25036;53.638;10.134;2022-08-01T03:23:52;4.50;;;4.10;;
39322;SDS011;25036;53.638;10.134;2022-08-01T03:24:57;4.38;;;3.97;;
39322;SDS011;25036;53.638;10.134;2022-08-01T03:25:58;4.68;;;4.15;;
39322;SDS011;25036;53.638;10.134;2022-08-01T03:26:59;5.38;;;4.75;;
39322;SDS011;25036;53.638;10.134;2022-08-01T03:28:01;9.18;;;5.05;;
39322;SDS011;25036;53.638;10.134;2022-08-01T03:29:04;5.90;;;4.65;;
39322;SDS011;25036;53.638;10.134;2022-08-01T03:30:06;6.57;;;4.75;;
39322;SDS011;25036;53.638;10.134;2022-08-01T03:31:06;4.97;;;4.47;;
39322;SDS011;25036;53.638;10.134;2022-08-01T03:32:07;5.40;;;4.43;;
39322;SDS011;25036;53.638;10.134;2022-08-01T03:33:10;6.45;;;5.10;;
39322;SDS011;25036;53.638;10.134;2022-08-01T03:34:10;6.25;;;4.97;;
39322;SDS011;25036;53.638;10.134;2022-08-01T03:35:10;8.10;;;5.05;;
39322;SDS011;25036;53.638;10.134;2022-08-01T03:36:11;5.40;;;4.90;;
39322;SDS011;25036;53.638;10.134;2022-08-01T03:37:13;5.38;;;4.80;;
39322;SDS011;25036;53.638;10.134;2022-08-01T03:38:16;4.82;;;4.20;;
39322;SDS011;25036;53.638;10.134;2022-08-01T03:39:17;5.05;;;3.90;;
39322;SDS011;25036;53.638;10.134;2022-08-01T03:40:25;5.63;;;5.10;;
39322;SDS011;25036;53.638;10.134;2022-08-01T03:41:29;5.10;;;4.60;;
39322;SDS011;25036;53.638;10.134;2022-08-01T03:42:36;6.10;;;4.55;;
39322;SDS011;25036;53.638;10.134;2022-08-01T03:43:38;4.97;;;4.50;;
39322;SDS011;25036;53.638;10.134;2022-08-01T03:44:41;5.22;;;3.97;;
39322;SDS011;25036;53.638;10.134;2022-08-01T03:45:48;5.60;;;4.20;;
39322;SDS011;25036;53.638;10.134;2022-08-01T03:47:08;5.95;;;4.30;;
39322;SDS011;25036;53.638;10.134;2022-08-01T03:48:10;4.45;;;4.00;;
39322;SDS011;25036;53.638;10.134;2022-08-01T03:49:32;7.25;;;4.55;;
39322;SDS011;25036;53.638;10.134;2022-08-01T03:50:32;4.05;;;3.60;;
39322;SDS011;25036;53.638;10.134;2022-08-01T03:51:33;4.20;;;3.80;;
39322;SDS011;25036;53.638;10.134;2022-08-01T03:52:34;5.03;;;4.00;;
39322;SDS011;25036;53.638;10.134;2022-08-01T03:53:36;8.40;;;4.30;;
39322;SDS011;25036;53.638;10.134;2022-08-01T03:54:38;5.05;;;3.50;;
39322;SDS011;25036;53.638;10.134;2022-08-01T03:55:41;4.90;;;4.10;;
39322;SDS011;25036;53.638;10.134;2022-08-01T03:56:42;5.78;;;4.10;;
39322;SDS011;25036;53.638;10.134;2022-08-01T03:57:42;6.50;;;4.10;;
39322;SDS011;25036;53.638;10.134;2022-08-01T03:58:43;6.53;;;4.07;;
39322;SDS011;25036;53.638;10.134;2022-08-01T03:59:43;7.30;;;4.55;;
39322;SDS011;25036;53.638;10.134;2022-08-01T04:00:44;7.03;;;3.45;;
39322;SDS011;25036;53.638;10.134;2022-08-01T04:01:45;4.20;;;3.85;;
39322;SDS011;25036;53.638;10.134;2022-08-01T04:02:49;3.70;;;3.40;;
39322;SDS011;25036;53.638;10.134;2022-08-01T04:03:49;6.30;;;3.80;;
39322;SDS011;25036;53.638;10.134;2022-08-01T04:04:50;4.97;;;4.20;;
39322;SDS011;25036;53.638;10.134;2022-08-01T04:05:50;4.28;;;3.30;;
39322;SDS011;25036;53.638;10.134;2022-08-01T04:06:50;5.30;;;3.63;;
39322;SDS011;25036;53.638;10.134;2022-08-01T04:07:53;4.00;;;3.15;;
39322;SDS011;25036;53.638;10.134;2022-08-01T04:08:56;5.30;;;3.80;;
39322;SDS011;25036;53.638;10.134;2022-08-01T04:09:57;4.72;;;3.60;;
39322;SDS011;25036;53.638;10.134;2022-08-01T04:10:57;5.05;;;3.50;;
39322;SDS011;25036;53.638;10.134;2022-08-01T04:11:58;5.88;;;3.55;;
39322;SDS011;25036;53.638;10.134;2022-08-01T04:12:59;4.60;;;4.10;;
39322;SDS011;25036;53.638;10.134;2022-08-01T04:14:00;3.80;;;3.50;;
39322;SDS011;25036;53.638;10.134;2022-08-01T04:15:00;4.87;;;3.43;;
39322;SDS011;25036;53.638;10.134;2022-08-01T04:16:00;7.03;;;3.53;;
39322;SDS011;25036;53.638;10.134;2022-08-01T04:17:01;4.50;;;3.83;;
39322;SDS011;25036;53.638;10.134;2022-08-01T04:18:01;5.03;;;3.70;;
39322;SDS011;25036;53.638;10.134;2022-08-01T04:19:01;5.63;;;3.67;;
39322;SDS011;25036;53.638;10.134;2022-08-01T04:20:01;3.95;;;3.38;;
39322;SDS011;25036;53.638;10.134;2022-08-01T04:21:02;4.93;;;4.38;;
39322;SDS011;25036;53.638;10.134;2022-08-01T04:22:02;4.50;;;3.50;;
39322;SDS011;25036;53.638;10.134;2022-08-01T04:23:03;4.70;;;3.63;;
39322;SDS011;25036;53.638;10.134;2022-08-01T04:24:07;6.18;;;3.55;;
39322;SDS011;25036;53.638;10.134;2022-08-01T04:25:11;5.93;;;3.42;;
39322;SDS011;25036;53.638;10.134;2022-08-01T04:26:12;7.07;;;4.43;;
39322;SDS011;25036;53.638;10.134;2022-08-01T04:27:15;5.38;;;3.38;;
39322;SDS011;25036;53.638;10.134;2022-08-01T04:28:17;4.75;;;3.45;;
39322;SDS011;25036;53.638;10.134;2022-08-01T04:29:19;5.47;;;3.58;;
39322;SDS011;25036;53.638;10.134;2022-08-01T04:30:21;4.05;;;3.05;;
39322;SDS011;25036;53.638;10.134;2022-08-01T04:31:22;4.30;;;3.15;;
39322;SDS011;25036;53.638;10.134;2022-08-01T04:32:26;6.85;;;3.70;;
39322;SDS011;25036;53.638;10.134;2022-08-01T04:33:28;4.47;;;3.20;;
39322;SDS011;25036;53.638;10.134;2022-08-01T04:34:30;6.22;;;3.85;;
39322;SDS011;25036;53.638;10.134;2022-08-01T04:35:31;3.88;;;3.45;;
39322;SDS011;25036;53.638;10.134;2022-08-01T04:36:33;4.88;;;3.90;;
39322;SDS011;25036;53.638;10.134;2022-08-01T04:37:34;3.70;;;3.40;;
39322;SDS011;25036;53.638;10.134;2022-08-01T04:38:36;4.80;;;3.08;;
39322;SDS011;25036;53.638;10.134;2022-08-01T04:39:37;3.70;;;3.40;;
39322;SDS011;25036;53.638;10.134;2022-08-01T04:40:38;5.63;;;3.15;;
39322;SDS011;25036;53.638;10.134;2022-08-01T04:41:40;3.78;;;3.08;;
39322;SDS011;25036;53.638;10.134;2022-08-01T04:42:40;4.05;;;3.40;;
39322;SDS011;25036;53.638;10.134;2022-08-01T04:43:41;6.33;;;3.40;;
39322;SDS011;25036;53.638;10.134;2022-08-01T04:44:41;4.05;;;3.08;;
39322;SDS011;25036;53.638;10.134;2022-08-01T04:45:42;4.78;;;3.72;;
39322;SDS011;25036;53.638;10.134;2022-08-01T04:46:43;3.35;;;3.10;;
39322;SDS011;25036;53.638;10.134;2022-08-01T04:47:43;5.85;;;3.72;;
39322;SDS011;25036;53.638;10.134;2022-08-01T04:48:44;6.43;;;3.25;;
39322;SDS011;25036;53.638;10.134;2022-08-01T04:49:45;4.53;;;2.97;;
39322;SDS011;25036;53.638;10.134;2022-08-01T04:50:45;4.85;;;3.30;;
39322;SDS011;25036;53.638;10.134;2022-08-01T04:51:49;5.15;;;2.83;;
39322;SDS011;25036;53.638;10.134;2022-08-01T04:52:50;6.75;;;2.95;;
39322;SDS011;25036;53.638;10.134;2022-08-01T04:53:51;3.15;;;2.67;;
39322;SDS011;25036;53.638;10.134;2022-08-01T04:54:51;3.03;;;2.80;;
39322;SDS011;25036;53.638;10.134;2022-08-01T04:55:51;5.17;;;2.90;;
39322;SDS011;25036;53.638;10.134;2022-08-01T04:56:52;2.83;;;2.42;;
39322;SDS011;25036;53.638;10.134;2022-08-01T04:57:53;3.33;;;2.83;;
39322;SDS011;25036;53.638;10.134;2022-08-01T04:58:53;4.90;;;2.73;;
39322;SDS011;25036;53.638;10.134;2022-08-01T05:00:12;4.05;;;2.63;;
39322;SDS011;25036;53.638;10.134;2022-08-01T05:01:12;3.05;;;2.70;;
39322;SDS011;25036;53.638;10.134;2022-08-01T05:03:13;3.00;;;2.65;;
39322;SDS011;25036;53.638;10.134;2022-08-01T05:04:13;2.35;;;2.20;;
39322;SDS011;25036;53.638;10.134;2022-08-01T05:05:13;3.83;;;2.65;;
39322;SDS011;25036;53.638;10.134;2022-08-01T05:06:14;2.38;;;2.15;;
39322;SDS011;25036;53.638;10.134;2022-08-01T05:07:14;5.20;;;2.70;;
39322;SDS011;25036;53.638;10.134;2022-08-01T05:08:15;2.78;;;2.50;;
39322;SDS011;25036;53.638;10.134;2022-08-01T05:09:16;3.40;;;2.42;;
39322;SDS011;25036;53.638;10.134;2022-08-01T05:10:16;4.70;;;2.30;;
39322;SDS011;25036;53.638;10.134;2022-08-01T05:11:16;2.60;;;2.40;;
39322;SDS011;25036;53.638;10.134;2022-08-01T05:12:16;3.60;;;2.53;;
39322;SDS011;25036;53.638;10.134;2022-08-01T05:13:16;2.47;;;2.27;;
39322;SDS011;25036;53.638;10.134;2022-08-01T05:14:16;2.60;;;2.10;;
39322;SDS011;25036;53.638;10.134;2022-08-01T05:15:17;2.40;;;2.20;;
39322;SDS011;25036;53.638;10.134;2022-08-01T05:16:17;4.65;;;2.47;;
39322;SDS011;25036;53.638;10.134;2022-08-01T05:17:17;2.97;;;2.30;;
39322;SDS011;25036;53.638;10.134;2022-08-01T05:18:17;2.00;;;1.80;;
39322;SDS011;25036;53.638;10.134;2022-08-01T05:19:17;2.43;;;1.90;;
39322;SDS011;25036;53.638;10.134;2022-08-01T05:20:18;2.03;;;1.50;;
39322;SDS011;25036;53.638;10.134;2022-08-01T05:21:18;3.75;;;1.63;;
39322;SDS011;25036;53.638;10.134;2022-08-01T05:22:18;2.10;;;1.50;;
39322;SDS011;25036;53.638;10.134;2022-08-01T05:23:18;2.38;;;2.00;;
39322;SDS011;25036;53.638;10.134;2022-08-01T05:24:18;3.47;;;1.40;;
39322;SDS011;25036;53.638;10.134;2022-08-01T05:25:18;6.47;;;1.30;;
39322;SDS011;25036;53.638;10.134;2022-08-01T05:26:19;2.75;;;1.38;;
39322;SDS011;25036;53.638;10.134;2022-08-01T05:27:19;2.13;;;1.30;;
39322;SDS011;25036;53.638;10.134;2022-08-01T05:28:19;1.90;;;1.03;;
39322;SDS011;25036;53.638;10.134;2022-08-01T05:29:19;1.70;;;1.17;;
39322;SDS011;25036;53.638;10.134;2022-08-01T05:30:19;1.30;;;1.20;;
39322;SDS011;25036;53.638;10.134;2022-08-01T05:31:20;1.83;;;1.10;;
39322;SDS011;25036;53.638;10.134;2022-08-01T05:32:20;3.23;;;1.20;;
39322;SDS011;25036;53.638;10.134;2022-08-01T05:33:20;2.47;;;1.13;;
39322;SDS011;25036;53.638;10.134;2022-08-01T05:34:21;3.80;;;1.10;;
39322;SDS011;25036;53.638;10.134;2022-08-01T05:35:22;1.20;;;1.10;;
39322;SDS011;25036;53.638;10.134;2022-08-01T05:36:22;2.30;;;1.30;;
39322;SDS011;25036;53.638;10.134;2022-08-01T05:37:22;2.03;;;1.03;;
39322;SDS011;25036;53.638;10.134;2022-08-01T05:38:22;0.93;;;0.93;;
39322;SDS011;25036;53.638;10.134;2022-08-01T05:39:22;1.60;;;0.93;;
39322;SDS011;25036;53.638;10.134;2022-08-01T05:40:22;1.63;;;1.17;;
39322;SDS011;25036;53.638;10.134;2022-08-01T05:41:23;1.58;;;1.10;;
39322;SDS011;25036;53.638;10.134;2022-08-01T05:42:23;2.70;;;1.00;;
39322;SDS011;25036;53.638;10.134;2022-08-01T05:43:23;1.77;;;1.30;;
39322;SDS011;25036;53.638;10.134;2022-08-01T05:44:23;1.43;;;1.33;;
39322;SDS011;25036;53.638;10.134;2022-08-01T05:45:23;4.90;;;1.20;;
39322;SDS011;25036;53.638;10.134;2022-08-01T05:46:23;1.03;;;0.90;;
39322;SDS011;25036;53.638;10.134;2022-08-01T05:47:23;2.63;;;1.40;;
39322;SDS011;25036;53.638;10.134;2022-08-01T05:48:24;3.23;;;0.80;;
39322;SDS011;25036;53.638;10.134;2022-08-01T05:49:24;2.53;;;1.20;;
39322;SDS011;25036;53.638;10.134;2022-08-01T05:50:24;3.10;;;0.97;;
39322;SDS011;25036;53.638;10.134;2022-08-01T05:51:24;1.97;;;0.90;;
39322;SDS011;25036;53.638;10.134;2022-08-01T05:52:25;1.63;;;1.00;;
39322;SDS011;25036;53.638;10.134;2022-08-01T05:53:25;3.60;;;1.00;;
39322;SDS011;25036;53.638;10.134;2022-08-01T05:54:25;1.27;;;1.00;;
39322;SDS011;25036;53.638;10.134;2022-08-01T05:55:25;2.25;;;0.90;;
39322;SDS011;25036;53.638;10.134;2022-08-01T05:56:26;2.07;;;0.90;;
39322;SDS011;25036;53.638;10.134;2022-08-01T05:57:26;1.27;;;1.00;;
39322;SDS011;25036;53.638;10.134;2022-08-01T05:58:26;2.67;;;1.07;;
39322;SDS011;25036;53.638;10.134;2022-08-01T05:59:27;1.47;;;1.10;;
39322;SDS011;25036;53.638;10.134;2022-08-01T06:00:27;6.18;;;1.95;;
39322;SDS011;25036;53.638;10.134;2022-08-01T06:01:27;2.45;;;1.05;;
39322;SDS011;25036;53.638;10.134;2022-08-01T06:02:27;2.07;;;0.97;;
39322;SDS011;25036;53.638;10.134;2022-08-01T06:03:27;2.70;;;1.17;;
39322;SDS011;25036;53.638;10.134;2022-08-01T06:04:31;2.10;;;0.90;;
39322;SDS011;25036;53.638;10.134;2022-08-01T06:05:31;2.15;;;1.30;;
39322;SDS011;25036;53.638;10.134;2022-08-01T06:06:31;2.20;;;0.77;;
39322;SDS011;25036;53.638;10.134;2022-08-01T06:07:31;3.80;;;1.27;;
39322;SDS011;25036;53.638;10.134;2022-08-01T06:08:31;5.10;;;1.57;;
39322;SDS011;25036;53.638;10.134;2022-08-01T06:09:32;3.38;;;1.42;;
39322;SDS011;25036;53.638;10.134;2022-08-01T06:10:32;3.28;;;1.23;;
39322;SDS011;25036;53.638;10.134;2022-08-01T06:11:32;1.63;;;0.80;;
39322;SDS011;25036;53.638;10.134;2022-08-01T06:12:33;3.70;;;1.10;;
39322;SDS011;25036;53.638;10.134;2022-08-01T06:13:33;2.97;;;1.05;;
39322;SDS011;25036;53.638;10.134;2022-08-01T06:14:33;6.50;;;1.05;;